Airfield :
LOGIN :

Register | Disclaimer

   EN    FR    IT 

 










Legend :    VFR   Marginal VFR   IFR   Intensive IFR   Very Intensive IFR
Visi :
Ceiling :
>= 8 km
>= 3000ft
5 to 8 km
1000 to 3000 ft
1500m to 5 km
500 to 1000 ft
800 to 1500m
200 to 500 ft
< 800m
< 200 ft
Symbols :   Thunderstorms  Fog  Heavy snow  Heavy precipitations  Wind > 20 kt
SIGMETs :     Misc.  Thunderstorms  Icing  Turbulence  Mountain Waves  Volcanic Ashes






- Airport Elevation : 408 ft
- IATA code : SOB


LHSM - Sarmellek Balaton

CURRENT METAR :
  • 190945Z AUTO 30006KT 230V020 9999 ////// 20/12 Q1014 NOSIG

EXPIRED METARs :
  • 190915Z AUTO 34007KT 290V040 9999 ////// 19/11 Q1014 NOSIG
  • 190845Z AUTO 34007KT 310V010 9999 ////// 18/12 Q1015 NOSIG
  • 190815Z AUTO 34007KT 300V010 9999 ////// 17/12 Q1015 NOSIG
  • 190745Z AUTO 35006KT 300V020 9999 ////// 16/12 Q1015 NOSIG
  • 190715Z AUTO 30005KT 270V340 9999 ////// 15/11 Q1015 NOSIG
  • 190645Z AUTO 30003KT 260V340 9000 ////// 14/11 Q1015 NOSIG

TAF TAF LHSM
Valid from the 19 at 09:00 until the 19 at 18:00 UTC


190815Z 1909/1918 34007KT CAVOK
TEMPO 1909/1913 SCT040
BECMG 1913/1916 04008KT



MET'MAP, your aeronautical weather chart ! - Copyright ORBIFLY December 2007 - Disclaimer

ORBIFLY MET'MAP TEAM :

Programming & Development : Alexandra Zaïnal
Concept & original design : Baudouin d'Aumeries
Assistance for programming : Marc-Olivier Méhu
Technical & hardware support : Manuel Goepfert

Contact : metmap@orbifly.com




SOURCES & CREDITS :

   NOAA